Time;durP1;ratioP1;P1;durP2;ratioP2;P2;SDS_P1;SDS_P2;PMS_P1;PMS_P2;Temp;Humidity;BMP_temperature;BMP_pressure;BME280_temperature;BME280_humidity;BME280_pressure;Samples;Min_cycle;Max_cycle;Signal;HPM_P1;HPM_P2
2022/09/03 00:00:17;;;;;;;4.68;2.42;;;;;;;10.21;100.00;98436.81;2627263;28;20570;-82
2022/09/03 00:02:08;;;;;;;2.80;2.10;;;;;;;10.26;100.00;98442.75;2626993;28;20044;-82
2022/09/03 00:03:32;;;;;;;5.68;2.50;;;;;;;10.20;100.00;98442.06;2627254;28;20054;-82
2022/09/03 00:05:08;;;;;;;2.60;2.38;;;;;;;10.23;100.00;98440.25;2626570;28;20060;-82
2022/09/03 00:06:33;;;;;;;2.72;2.30;;;;;;;10.30;100.00;98441.78;2627069;28;20090;-82
2022/09/03 00:08:21;;;;;;;6.05;2.40;;;;;;;10.29;100.00;98441.84;2627111;28;20051;-83
2022/09/03 00:09:51;;;;;;;3.13;2.05;;;;;;;10.24;100.00;98438.47;2627006;28;20098;-82
2022/09/03 00:11:13;;;;;;;3.40;2.50;;;;;;;10.28;100.00;98440.97;2626904;28;20075;-82
2022/09/03 00:12:35;;;;;;;3.95;2.42;;;;;;;10.21;100.00;98431.56;2626756;28;20052;-82
2022/09/03 00:14:19;;;;;;;2.50;2.08;;;;;;;10.24;100.00;98434.09;2626968;28;20059;-81
2022/09/03 00:15:36;;;;;;;3.00;2.20;;;;;;;10.25;100.00;98430.59;2627158;28;20079;-81
2022/09/03 00:16:57;;;;;;;3.53;2.58;;;;;;;10.27;100.00;98433.19;2626905;28;20479;-82
2022/09/03 00:18:19;;;;;;;2.50;2.20;;;;;;;10.25;100.00;98432.31;2626706;28;20044;-83
2022/09/03 00:19:43;;;;;;;3.13;2.05;;;;;;;10.23;100.00;98432.38;2626927;28;20217;-83
2022/09/03 00:21:30;;;;;;;5.05;2.05;;;;;;;10.20;100.00;98431.59;2627104;28;20502;-82
2022/09/03 00:23:00;;;;;;;2.63;1.80;;;;;;;9.98;100.00;98433.03;2626858;28;20055;-81
2022/09/03 00:24:19;;;;;;;2.85;2.10;;;;;;;10.09;100.00;98434.50;2627145;28;20048;-86
2022/09/03 00:25:41;;;;;;;2.88;2.15;;;;;;;10.17;100.00;98440.38;2626902;28;20048;-85
2022/09/03 00:27:02;;;;;;;4.32;2.70;;;;;;;10.27;100.00;98439.25;2627075;28;20105;-82
2022/09/03 00:28:40;;;;;;;2.80;2.30;;;;;;;10.24;100.00;98449.81;2626600;28;20052;-84
2022/09/03 00:30:00;;;;;;;4.72;2.40;;;;;;;10.21;100.00;98436.81;2627068;28;20725;-85
2022/09/03 00:31:26;;;;;;;3.88;2.00;;;;;;;10.14;100.00;98448.31;2626691;28;20543;-82
2022/09/03 00:32:53;;;;;;;2.33;2.13;;;;;;;10.15;100.00;98442.19;2626503;28;20132;-81
2022/09/03 00:34:19;;;;;;;6.65;2.15;;;;;;;10.03;100.00;98446.84;2626517;28;20048;-82
2022/09/03 00:35:48;;;;;;;2.22;1.90;;;;;;;9.98;100.00;98446.09;2626623;28;20051;-82
2022/09/03 00:37:04;;;;;;;2.78;2.30;;;;;;;10.01;100.00;98448.63;2623700;28;20049;-81
2022/09/03 00:38:21;;;;;;;2.90;2.30;;;;;;;10.02;100.00;98445.13;2622985;28;20087;-81
2022/09/03 00:39:37;;;;;;;2.50;2.10;;;;;;;10.00;100.00;98446.91;2626708;28;20067;-82
2022/09/03 00:41:30;;;;;;;2.50;2.10;;;;;;;10.00;100.00;98446.06;2626612;28;20048;-82
2022/09/03 00:43:03;;;;;;;3.10;2.10;;;;;;;9.89;100.00;98446.31;2626980;28;20166;-82
2022/09/03 00:44:47;;;;;;;2.80;2.20;;;;;;;9.79;100.00;98444.88;2626758;28;20475;-82
2022/09/03 00:46:18;;;;;;;3.13;2.55;;;;;;;9.50;100.00;98439.44;2626740;28;20052;-82
2022/09/03 00:47:45;;;;;;;7.28;2.40;;;;;;;9.59;100.00;98433.13;2626929;28;20067;-81
2022/09/03 00:49:23;;;;;;;3.15;2.45;;;;;;;9.47;100.00;98429.06;2626863;28;20055;-81
2022/09/03 00:51:26;;;;;;;2.53;2.20;;;;;;;9.32;100.00;98432.88;2626927;28;20059;-81
2022/09/03 00:52:51;;;;;;;3.13;2.58;;;;;;;9.46;100.00;98436.03;2626967;28;20048;-82
2022/09/03 00:54:20;;;;;;;3.45;2.50;;;;;;;9.56;100.00;98433.19;2626626;28;20055;-81
2022/09/03 00:55:57;;;;;;;3.05;2.45;;;;;;;9.44;100.00;98432.59;2626658;28;20124;-82
2022/09/03 00:57:12;;;;;;;5.20;2.47;;;;;;;9.45;100.00;98429.06;2626619;28;20076;-82
2022/09/03 00:58:38;;;;;;;2.13;1.98;;;;;;;9.32;100.00;98432.88;2627052;28;20491;-82
2022/09/03 01:00:32;;;;;;;5.20;2.25;;;;;;;9.39;100.00;98430.97;2626717;28;20059;-82
2022/09/03 01:01:59;;;;;;;2.85;2.35;;;;;;;9.43;100.00;98424.81;2590009;28;20480;-88
2022/09/03 01:03:32;;;;;;;3.45;2.38;;;;;;;9.41;100.00;98424.81;2590244;28;20057;-81
2022/09/03 01:05:03;;;;;;;2.90;2.15;;;;;;;9.46;100.00;98428.19;2590045;28;20057;-82
2022/09/03 01:06:21;;;;;;;4.22;2.50;;;;;;;9.48;100.00;98422.94;2589215;28;20057;-85
2022/09/03 01:07:48;;;;;;;3.75;2.65;;;;;;;9.48;100.00;98422.94;2615941;28;20044;-82
2022/09/03 01:09:20;;;;;;;3.35;2.15;;;;;;;9.38;100.00;98421.41;2626739;28;20044;-83
2022/09/03 01:10:52;;;;;;;4.47;2.42;;;;;;;9.34;100.00;98428.47;2628334;28;20059;-82
2022/09/03 01:12:44;;;;;;;4.65;2.83;;;;;;;9.26;100.00;98423.41;2628404;28;20052;-82
2022/09/03 01:14:09;;;;;;;4.75;2.63;;;;;;;9.15;100.00;98426.28;2629045;28;20083;-85
2022/09/03 01:15:50;;;;;;;3.50;2.50;;;;;;;9.11;100.00;98424.66;2628601;28;20052;-82
2022/09/03 01:17:30;;;;;;;2.85;2.30;;;;;;;9.08;100.00;98423.84;2628709;28;20105;-81
2022/09/03 01:19:34;;;;;;;2.60;2.40;;;;;;;9.02;100.00;98422.22;2628455;28;20099;-81
2022/09/03 01:21:14;;;;;;;4.18;2.45;;;;;;;9.01;100.00;98428.34;2600559;28;20099;-82
2022/09/03 01:22:48;;;;;;;2.85;2.42;;;;;;;8.86;100.00;98432.13;2626207;28;20113;-82
2022/09/03 01:24:18;;;;;;;3.60;2.50;;;;;;;8.75;100.00;98435.84;2628310;28;20052;-82
2022/09/03 01:26:10;;;;;;;2.70;2.35;;;;;;;8.73;100.00;98436.75;2629018;28;20474;-83
2022/09/03 01:27:45;;;;;;;3.58;2.45;;;;;;;8.72;100.00;98433.28;2628581;28;20052;-85
2022/09/03 01:29:10;;;;;;;4.72;2.60;;;;;;;8.71;100.00;98435.94;2628503;28;20087;-83
2022/09/03 01:30:28;;;;;;;3.00;2.65;;;;;;;8.82;100.00;98423.53;2628405;28;20072;-82
2022/09/03 01:32:14;;;;;;;7.85;3.00;;;;;;;8.82;100.00;98433.09;2628313;28;20135;-82
2022/09/03 01:33:37;;;;;;;5.50;2.55;;;;;;;8.65;100.00;98423.88;2628708;28;20044;-81
2022/09/03 01:35:06;;;;;;;4.07;2.45;;;;;;;8.59;100.00;98429.19;2628575;28;20517;-81
2022/09/03 01:36:27;;;;;;;3.20;2.67;;;;;;;8.59;100.00;98426.59;2628121;28;20044;-82
2022/09/03 01:38:10;;;;;;;3.17;2.40;;;;;;;8.65;100.00;98428.22;2628260;28;20490;-81
2022/09/03 01:39:33;;;;;;;;;;;;;;;8.62;100.00;98424.78;2629026;28;20082;-82
2022/09/03 01:40:52;;;;;;;6.35;2.30;;;;;;;8.64;100.00;98429.97;2628785;28;19934;-82
2022/09/03 01:42:35;;;;;;;3.08;2.25;;;;;;;8.68;100.00;98433.41;2628224;28;20048;-82
2022/09/03 01:44:31;;;;;;;3.58;2.28;;;;;;;8.75;100.00;98434.97;2627768;28;20449;-85
2022/09/03 01:45:59;;;;;;;3.28;2.35;;;;;;;8.76;100.00;98428.84;2627371;28;20149;-82
2022/09/03 01:47:35;;;;;;;2.38;2.17;;;;;;;8.74;100.00;98436.75;2627893;28;20222;-84
2022/09/03 01:49:10;;;;;;;2.45;2.25;;;;;;;8.76;100.00;98431.47;2627838;28;20076;-83
2022/09/03 01:50:49;;;;;;;2.72;2.17;;;;;;;8.68;100.00;98433.41;2627903;28;20080;-79
2022/09/03 01:52:10;;;;;;;2.47;2.28;;;;;;;8.74;100.00;98423.69;2628281;28;20135;-81
2022/09/03 01:54:00;;;;;;;4.30;2.25;;;;;;;8.74;100.00;98428.91;2628311;28;20055;-81
2022/09/03 01:55:32;;;;;;;3.45;2.15;;;;;;;8.69;100.00;98437.72;2627949;28;20052;-81
2022/09/03 01:57:06;;;;;;;2.55;2.30;;;;;;;8.64;100.00;98439.53;2627679;28;20568;-81
2022/09/03 01:58:33;;;;;;;4.45;2.60;;;;;;;8.64;100.00;98434.31;2627531;28;20498;-82
2022/09/03 02:00:02;;;;;;;3.38;2.72;;;;;;;8.59;100.00;98432.69;2628513;28;20055;-82
2022/09/03 02:01:29;;;;;;;4.50;2.70;;;;;;;8.64;100.00;98434.31;2628044;28;20060;-82
2022/09/03 02:02:49;;;;;;;3.38;2.45;;;;;;;8.59;100.00;98435.28;2627611;28;20052;-84
2022/09/03 02:04:22;;;;;;;3.20;2.60;;;;;;;8.53;100.00;98438.03;2627900;28;20059;-82
2022/09/03 02:05:38;;;;;;;3.67;2.45;;;;;;;8.45;100.00;98439.88;2627838;28;20056;-83
2022/09/03 02:06:56;;;;;;;3.38;2.60;;;;;;;8.35;100.00;98436.59;2628139;28;20051;-82
2022/09/03 02:08:12;;;;;;;2.78;2.58;;;;;;;8.34;100.00;98442.72;2627610;28;20044;-83
2022/09/03 02:09:28;;;;;;;4.07;2.65;;;;;;;8.23;100.00;98449.88;2628057;28;20077;-83
2022/09/03 02:10:46;;;;;;;5.18;2.45;;;;;;;8.18;100.00;98448.22;2628270;28;20055;-82
2022/09/03 02:12:10;;;;;;;2.70;2.30;;;;;;;8.19;100.00;98449.94;2627623;28;20060;-82
2022/09/03 02:13:30;;;;;;;3.20;2.58;;;;;;;8.25;100.00;98448.97;2628022;28;20160;-82
2022/09/03 02:14:46;;;;;;;5.30;2.63;;;;;;;8.33;100.00;98454.03;2627973;28;20494;-82
2022/09/03 02:16:11;;;;;;;2.60;2.40;;;;;;;8.19;100.00;98449.94;2628075;28;20234;-84
2022/09/03 02:17:27;;;;;;;3.10;2.60;;;;;;;8.26;100.00;98445.47;2627879;28;20118;-80
2022/09/03 02:18:53;;;;;;;3.75;2.30;;;;;;;8.27;100.00;98446.31;2627808;28;20040;-82
2022/09/03 02:20:15;;;;;;;2.80;2.08;;;;;;;8.33;100.00;98444.44;2628304;28;20490;-82
2022/09/03 02:21:35;;;;;;;3.65;2.40;;;;;;;8.37;100.00;98449.59;2627796;28;20525;-82
2022/09/03 02:22:53;;;;;;;2.80;2.10;;;;;;;8.28;100.00;98451.50;2628195;28;20055;-84
2022/09/03 02:24:08;;;;;;;3.55;2.38;;;;;;;8.29;100.00;98445.41;2627857;28;20055;-82
2022/09/03 02:25:31;;;;;;;3.92;2.30;;;;;;;8.20;100.00;98449.03;2627024;28;20071;-81
2022/09/03 02:26:47;;;;;;;3.00;2.30;;;;;;;8.11;100.00;98449.19;2627334;28;20128;-82
2022/09/03 02:28:05;;;;;;;3.97;2.20;;;;;;;8.13;100.00;98449.19;2627805;28;20109;-82
2022/09/03 02:29:20;;;;;;;2.90;2.58;;;;;;;8.16;100.00;98441.28;2627881;28;20461;-82
2022/09/03 02:30:36;;;;;;;4.72;2.40;;;;;;;8.16;100.00;98449.13;2627763;28;20076;-82
2022/09/03 02:31:52;;;;;;;3.13;2.28;;;;;;;8.21;100.00;98444.66;2627681;28;20089;-82
2022/09/03 02:33:08;;;;;;;2.50;2.20;;;;;;;8.17;100.00;98449.09;2627347;28;20063;-84
2022/09/03 02:34:23;;;;;;;2.13;1.92;;;;;;;8.18;100.00;98450.81;2627646;28;20494;-82
2022/09/03 02:35:40;;;;;;;3.53;2.08;;;;;;;8.17;100.00;98459.53;2627821;28;20040;-82
2022/09/03 02:36:56;;;;;;;2.85;2.20;;;;;;;8.26;100.00;98449.81;2627748;28;20090;-83
2022/09/03 02:38:20;;;;;;;2.90;2.40;;;;;;;8.28;100.00;98448.03;2627286;28;20052;-84
2022/09/03 02:39:38;;;;;;;2.45;2.05;;;;;;;8.22;100.00;98456.81;2627823;28;20481;-83
2022/09/03 02:40:54;;;;;;;3.08;2.13;;;;;;;8.21;100.00;98452.50;2627590;28;20159;-82
2022/09/03 02:42:12;;;;;;;3.15;2.13;;;;;;;8.23;100.00;98452.47;2627693;28;20056;-83
2022/09/03 02:43:46;;;;;;;3.25;2.22;;;;;;;8.12;100.00;98447.47;2627304;28;20055;-81
2022/09/03 02:45:28;;;;;;;2.92;2.20;;;;;;;7.94;100.00;98448.66;2627967;28;20044;-82
2022/09/03 02:46:50;;;;;;;3.05;2.33;;;;;;;7.93;100.00;98455.59;2624989;28;20055;-82
2022/09/03 02:48:08;;;;;;;;;;;;;;;7.97;100.00;98445.97;2628225;28;21171;-82
2022/09/03 02:49:23;;;;;;;3.03;2.10;;;;;;;7.98;100.00;98448.56;2627012;28;19930;-82
2022/09/03 02:50:41;;;;;;;4.90;2.05;;;;;;;7.91;100.00;98447.81;2627277;28;20043;-82
2022/09/03 02:51:59;;;;;;;3.20;2.28;;;;;;;7.84;100.00;98442.72;2627405;28;20678;-83
2022/09/03 02:53:15;;;;;;;3.25;2.42;;;;;;;7.86;100.00;98444.41;2627314;28;20051;-82
2022/09/03 02:54:34;;;;;;;3.13;2.45;;;;;;;7.79;100.00;98442.81;2627552;28;20554;-82
2022/09/03 02:55:50;;;;;;;3.17;2.47;;;;;;;7.72;100.00;98436.84;2627428;28;20039;-82
2022/09/03 02:57:12;;;;;;;3.60;2.65;;;;;;;7.76;100.00;98432.44;2627425;28;20048;-82
2022/09/03 02:58:30;;;;;;;5.53;2.47;;;;;;;7.58;100.00;98437.03;2627617;28;20079;-82
2022/09/03 02:59:45;;;;;;;3.67;2.88;;;;;;;7.52;100.00;98436.28;2627278;28;20059;-82
2022/09/03 03:01:01;;;;;;;4.78;2.85;;;;;;;7.46;100.00;98437.22;2627350;28;20509;-81
2022/09/03 03:02:17;;;;;;;3.40;2.50;;;;;;;7.52;100.00;98431.94;2627349;28;20076;-82
2022/09/03 03:03:32;;;;;;;4.15;2.40;;;;;;;7.57;100.00;98437.09;2626730;28;20060;-82
2022/09/03 03:04:48;;;;;;;3.20;2.40;;;;;;;7.68;100.00;98437.75;2626890;28;20051;-83
2022/09/03 03:06:04;;;;;;;3.17;2.60;;;;;;;7.71;100.00;98439.44;2627406;28;20555;-82
2022/09/03 03:07:20;;;;;;;3.22;2.80;;;;;;;7.57;100.00;98440.53;2627150;28;20052;-82
2022/09/03 03:08:36;;;;;;;2.92;2.60;;;;;;;7.66;100.00;98444.72;2627548;28;20052;-81
2022/09/03 03:09:52;;;;;;;3.97;2.40;;;;;;;7.61;100.00;98437.00;2627577;28;20985;-82
2022/09/03 03:11:08;;;;;;;5.15;2.40;;;;;;;7.63;100.00;98442.19;2627352;28;20055;-82
2022/09/03 03:12:24;;;;;;;2.70;2.47;;;;;;;7.60;100.00;98445.69;2627298;28;20050;-82
2022/09/03 03:13:40;;;;;;;4.20;2.30;;;;;;;7.54;100.00;98453.63;2627506;28;20044;-82
2022/09/03 03:14:55;;;;;;;4.20;2.58;;;;;;;7.56;100.00;98445.78;2627197;28;20131;-81
2022/09/03 03:16:12;;;;;;;4.05;2.50;;;;;;;7.59;100.00;98437.91;2627500;28;20051;-82
2022/09/03 03:17:28;;;;;;;2.85;2.38;;;;;;;7.60;100.00;98444.84;2626923;28;20064;-82
2022/09/03 03:18:47;;;;;;;3.00;2.22;;;;;;;7.52;100.00;98441.50;2627289;28;20099;-82
2022/09/03 03:20:03;;;;;;;3.30;2.75;;;;;;;7.46;100.00;98443.31;2627025;28;20048;-82
2022/09/03 03:21:18;;;;;;;3.05;2.28;;;;;;;7.51;100.00;98442.38;2627355;28;20505;-82
2022/09/03 03:22:34;;;;;;;3.17;2.17;;;;;;;7.52;100.00;98444.09;2627122;28;20052;-82
2022/09/03 03:23:50;;;;;;;2.60;2.22;;;;;;;7.61;100.00;98447.44;2627257;28;20044;-84
2022/09/03 03:25:05;;;;;;;5.63;2.60;;;;;;;7.68;100.00;98448.16;2627561;28;20058;-85
2022/09/03 03:26:21;;;;;;;2.78;2.30;;;;;;;7.65;100.00;98445.63;2627461;28;20133;-81
2022/09/03 03:27:40;;;;;;;2.45;2.13;;;;;;;7.60;100.00;98440.47;2626961;28;20126;-82
2022/09/03 03:28:58;;;;;;;3.70;2.50;;;;;;;7.46;100.00;98440.72;2627168;28;20090;-83
2022/09/03 03:30:14;;;;;;;3.38;2.40;;;;;;;7.37;100.00;98438.22;2627416;28;20051;-82
2022/09/03 03:31:30;;;;;;;2.97;2.38;;;;;;;7.28;100.00;98441.84;2627395;28;20084;-86
2022/09/03 03:32:46;;;;;;;2.75;2.20;;;;;;;7.27;100.00;98437.50;2626341;28;20169;-82
2022/09/03 03:34:02;;;;;;;3.50;2.75;;;;;;;7.31;100.00;98438.34;2627283;28;20134;-82
2022/09/03 03:35:18;;;;;;;3.08;2.50;;;;;;;7.39;100.00;98436.47;2627158;28;20097;-82
2022/09/03 03:36:34;;;;;;;5.82;2.30;;;;;;;7.28;100.00;98438.38;2626901;28;20101;-84
2022/09/03 03:37:50;;;;;;;3.60;2.45;;;;;;;7.23;100.00;98434.97;2626858;28;20485;-82
2022/09/03 03:39:06;;;;;;;3.30;2.47;;;;;;;7.26;100.00;98437.53;2627260;28;20052;-81
2022/09/03 03:40:21;;;;;;;3.20;2.85;;;;;;;7.32;100.00;98438.31;2627298;28;20051;-83
2022/09/03 03:41:37;;;;;;;3.53;2.50;;;;;;;7.26;100.00;98437.53;2627096;28;20051;-83
2022/09/03 03:42:53;;;;;;;3.67;2.38;;;;;;;7.27;100.00;98429.69;2626820;28;20054;-82
2022/09/03 03:44:09;;;;;;;4.18;2.97;;;;;;;7.31;100.00;98430.53;2626895;28;20113;-82
2022/09/03 03:45:25;;;;;;;2.45;2.25;;;;;;;7.33;100.00;98426.16;2627082;28;20763;-82
2022/09/03 03:46:40;;;;;;;2.70;2.22;;;;;;;7.27;100.00;98434.06;2626696;28;20591;-81
2022/09/03 03:47:58;;;;;;;3.30;2.50;;;;;;;7.12;100.00;98424.72;2626945;28;20048;-82
2022/09/03 03:49:13;;;;;;;2.90;2.25;;;;;;;7.13;100.00;98435.13;2626777;28;20071;-81
2022/09/03 03:50:29;;;;;;;4.32;2.85;;;;;;;7.14;100.00;98433.38;2627282;28;20052;-82
2022/09/03 03:51:46;;;;;;;6.03;2.60;;;;;;;7.18;100.00;98428.09;2627291;28;20109;-81
2022/09/03 03:53:01;;;;;;;2.97;2.58;;;;;;;7.16;100.00;98429.88;2627275;28;20445;-82
2022/09/03 03:54:18;;;;;;;3.65;2.70;;;;;;;7.16;100.00;98429.88;2626784;28;20136;-86
2022/09/03 03:55:34;;;;;;;3.75;2.35;;;;;;;7.19;100.00;98427.22;2627262;28;20096;-82
2022/09/03 03:56:49;;;;;;;3.75;2.20;;;;;;;7.15;100.00;98427.28;2627112;28;20090;-82
2022/09/03 03:58:04;;;;;;;3.58;2.40;;;;;;;7.09;100.00;98428.22;2626994;28;20044;-82
2022/09/03 03:59:20;;;;;;;3.50;2.35;;;;;;;7.12;100.00;98425.56;2627201;28;20086;-82
2022/09/03 04:00:37;;;;;;;3.28;2.42;;;;;;;7.10;100.00;98419.53;2626634;28;20489;-81
2022/09/03 04:01:55;;;;;;;2.78;2.40;;;;;;;7.09;100.00;98428.22;2626750;28;20052;-87
2022/09/03 04:03:10;;;;;;;3.30;2.53;;;;;;;7.06;100.00;98423.94;2626606;28;20105;-82
2022/09/03 04:04:26;;;;;;;3.53;2.30;;;;;;;7.10;100.00;98423.88;2626902;28;20052;-85
2022/09/03 04:05:42;;;;;;;3.85;2.70;;;;;;;7.06;100.00;98425.66;2626914;28;20477;-81
2022/09/03 04:06:58;;;;;;;3.75;2.60;;;;;;;7.07;100.00;98428.25;2627125;28;20418;-82
2022/09/03 04:08:13;;;;;;;2.67;2.28;;;;;;;7.07;100.00;98419.56;2627119;28;20047;-82
2022/09/03 04:09:29;;;;;;;3.60;2.30;;;;;;;7.11;100.00;98423.00;2627088;28;20249;-86
2022/09/03 04:10:46;;;;;;;4.75;2.60;;;;;;;6.98;100.00;98425.78;2626962;28;20048;-82
2022/09/03 04:12:02;;;;;;;4.22;2.78;;;;;;;6.99;100.00;98421.44;2626290;28;20044;-83
2022/09/03 04:13:18;;;;;;;6.45;2.67;;;;;;;7.00;100.00;98415.34;2627002;28;20058;-82
2022/09/03 04:14:34;;;;;;;2.63;2.42;;;;;;;6.93;100.00;98418.03;2627102;28;20486;-81
2022/09/03 04:15:50;;;;;;;2.97;2.35;;;;;;;6.89;100.00;98424.16;2626488;28;20154;-82
2022/09/03 04:17:05;;;;;;;2.92;2.30;;;;;;;6.87;100.00;98419.84;2626898;28;20051;-81
2022/09/03 04:18:21;;;;;;;2.97;2.67;;;;;;;6.95;100.00;98425.81;2626473;28;20055;-83
2022/09/03 04:19:37;;;;;;;2.95;2.40;;;;;;;6.91;100.00;98425.00;2626844;28;20074;-81
2022/09/03 04:20:57;;;;;;;4.15;2.63;;;;;;;7.00;100.00;98425.78;2626791;28;20048;-82
2022/09/03 04:22:14;;;;;;;3.95;2.50;;;;;;;7.02;100.00;98431.81;2626783;28;20055;-81
2022/09/03 04:23:31;;;;;;;2.67;2.30;;;;;;;6.88;100.00;98427.66;2625935;28;20052;-81
2022/09/03 04:24:47;;;;;;;3.95;2.63;;;;;;;6.98;100.00;98430.09;2626124;28;20071;-83
2022/09/03 04:26:03;;;;;;;2.78;2.58;;;;;;;6.97;100.00;98425.78;2626648;28;20047;-82
2022/09/03 04:27:19;;;;;;;3.45;2.25;;;;;;;6.72;100.00;98424.38;2626450;28;20052;-81
2022/09/03 04:28:35;;;;;;;3.50;2.50;;;;;;;6.84;100.00;98422.50;2626691;28;20498;-81
2022/09/03 04:29:51;;;;;;;3.08;2.60;;;;;;;6.85;100.00;98419.88;2625822;28;20060;-81
2022/09/03 04:31:09;;;;;;;4.32;2.45;;;;;;;6.72;100.00;98424.38;2626455;28;20075;-82
2022/09/03 04:34:09;;;;;;;2.67;2.17;;;;;;;6.67;100.00;98414.91;2614838;28;20079;-81
2022/09/03 04:35:33;;;;;;;2.78;2.45;;;;;;;6.76;100.00;98420.00;2626732;28;20487;-81
2022/09/03 04:36:48;;;;;;;4.07;2.80;;;;;;;6.73;100.00;98420.03;2626744;28;20040;-81
2022/09/03 04:38:04;;;;;;;4.38;2.60;;;;;;;6.83;100.00;98418.19;2626898;28;20036;-82
2022/09/03 04:39:19;;;;;;;4.55;2.90;;;;;;;6.92;100.00;98412.84;2626648;28;20079;-81
2022/09/03 04:40:36;;;;;;;4.28;3.10;;;;;;;7.00;100.00;98417.97;2626586;28;20044;-82
2022/09/03 04:41:51;;;;;;;6.13;2.78;;;;;;;7.04;100.00;98419.63;2626856;28;20117;-82
2022/09/03 04:43:07;;;;;;;3.05;2.72;;;;;;;7.07;100.00;98420.44;2626572;28;20048;-83
2022/09/03 04:44:22;;;;;;;4.85;2.78;;;;;;;7.08;100.00;98416.09;2628401;28;20502;-82
2022/09/03 04:45:38;;;;;;;4.28;2.55;;;;;;;7.12;100.00;98412.56;2628828;28;20079;-82
2022/09/03 04:46:53;;;;;;;3.08;2.70;;;;;;;7.16;100.00;98414.25;2628944;28;20040;-82
2022/09/03 04:48:10;;;;;;;3.00;2.70;;;;;;;7.20;100.00;98420.28;2628428;28;20036;-81
2022/09/03 04:49:26;;;;;;;3.20;2.83;;;;;;;7.14;100.00;98421.22;2628325;28;20040;-83
2022/09/03 04:50:42;;;;;;;3.35;2.72;;;;;;;7.25;100.00;98420.19;2628257;28;20083;-84
2022/09/03 04:51:57;;;;;;;6.97;2.92;;;;;;;7.32;100.00;98414.00;2628721;28;20101;-82
2022/09/03 04:53:13;;;;;;;7.72;2.85;;;;;;;7.37;100.00;98413.94;2628202;28;20055;-81
2022/09/03 04:54:28;;;;;;;4.03;2.78;;;;;;;7.36;100.00;98413.06;2628400;28;20044;-82
2022/09/03 04:55:44;;;;;;;3.78;2.88;;;;;;;7.37;100.00;98425.22;2628576;28;20454;-83
2022/09/03 04:57:00;;;;;;;4.45;2.70;;;;;;;7.33;100.00;98420.94;2628532;28;20044;-82
2022/09/03 04:58:15;;;;;;;4.65;3.00;;;;;;;7.35;100.00;98425.25;2628275;28;20044;-87
2022/09/03 04:59:31;;;;;;;3.28;2.60;;;;;;;7.39;100.00;98423.44;2628549;28;20048;-84
2022/09/03 05:00:46;;;;;;;3.10;2.67;;;;;;;7.39;100.00;98425.19;2628752;28;20052;-82
2022/09/03 05:02:02;;;;;;;5.10;2.90;;;;;;;7.38;100.00;98419.13;2628765;28;20072;-84
2022/09/03 05:03:18;;;;;;;5.78;3.53;;;;;;;7.31;100.00;98420.94;2628015;28;20098;-82
2022/09/03 05:04:33;;;;;;;4.78;3.10;;;;;;;7.37;100.00;98417.41;2628528;28;20516;-83
2022/09/03 05:05:55;;;;;;;4.57;3.35;;;;;;;7.39;100.00;98417.38;2628563;28;20082;-82
2022/09/03 05:07:11;;;;;;;3.40;3.10;;;;;;;7.46;100.00;98426.81;2628331;28;20393;-82
2022/09/03 05:08:27;;;;;;;3.60;2.95;;;;;;;7.49;100.00;98435.44;2628282;28;20071;-82
2022/09/03 05:09:42;;;;;;;4.75;3.00;;;;;;;7.54;100.00;98431.91;2628389;28;20052;-81
2022/09/03 05:11:01;;;;;;;4.68;3.47;;;;;;;7.69;100.00;98430.81;2626465;28;20491;-82
2022/09/03 05:12:17;;;;;;;3.70;2.85;;;;;;;7.73;100.00;98433.34;2626755;28;20047;-86
2022/09/03 05:13:34;;;;;;;4.32;3.17;;;;;;;7.68;100.00;98432.53;2628305;28;20548;-81
2022/09/03 05:14:49;;;;;;;2.80;2.60;;;;;;;7.69;100.00;98434.28;2628238;28;20062;-81
2022/09/03 05:16:08;;;;;;;4.05;3.10;;;;;;;7.73;100.00;98435.06;2628491;28;20485;-81
2022/09/03 05:17:23;;;;;;;3.72;3.17;;;;;;;7.86;100.00;98440.97;2628295;28;20445;-81
2022/09/03 05:18:41;;;;;;;5.63;3.10;;;;;;;7.95;100.00;98447.75;2628336;28;20070;-81
2022/09/03 05:19:56;;;;;;;3.78;2.92;;;;;;;8.16;100.00;98441.28;2628082;28;20047;-82
2022/09/03 05:21:17;;;;;;;4.00;2.97;;;;;;;8.03;100.00;98438.91;2628753;28;20528;-81
2022/09/03 05:22:34;;;;;;;4.18;2.90;;;;;;;8.09;100.00;98439.69;2628384;28;20044;-81
2022/09/03 05:23:51;;;;;;;4.30;3.08;;;;;;;8.11;100.00;98443.13;2628611;28;20059;-82
2022/09/03 05:25:07;;;;;;;3.42;2.92;;;;;;;8.08;100.00;98441.44;2628545;28;20058;-82
2022/09/03 05:26:26;;;;;;;5.32;3.03;;;;;;;8.14;100.00;98432.66;2628351;28;20051;-82
2022/09/03 05:27:42;;;;;;;3.38;3.08;;;;;;;8.19;100.00;98434.28;2628410;28;20051;-82
2022/09/03 05:29:00;;;;;;;4.22;3.15;;;;;;;8.25;100.00;98441.13;2628712;28;20071;-82
2022/09/03 05:30:15;;;;;;;4.07;2.88;;;;;;;8.17;100.00;98443.88;2628543;28;20052;-83
2022/09/03 05:31:32;;;;;;;4.93;3.10;;;;;;;8.23;100.00;98437.69;2628916;28;20058;-82
2022/09/03 05:32:48;;;;;;;3.65;3.30;;;;;;;8.30;100.00;98436.69;2628388;28;20051;-81
2022/09/03 05:34:05;;;;;;;3.80;3.17;;;;;;;8.29;100.00;98440.19;2628986;28;20104;-83
2022/09/03 05:35:20;;;;;;;4.30;3.17;;;;;;;8.34;100.00;98442.72;2628042;28;20151;-82
2022/09/03 05:36:39;;;;;;;3.78;3.20;;;;;;;8.36;100.00;98440.94;2627946;28;20498;-83
2022/09/03 05:37:55;;;;;;;3.85;2.92;;;;;;;8.39;100.00;98430.44;2627968;28;20419;-82
2022/09/03 05:39:10;;;;;;;4.00;3.25;;;;;;;8.38;100.00;98435.66;2627760;28;20051;-82
2022/09/03 05:40:25;;;;;;;4.10;3.00;;;;;;;8.46;100.00;98441.59;2627506;28;20568;-85
2022/09/03 05:41:41;;;;;;;3.60;3.17;;;;;;;8.47;100.00;98441.59;2628205;28;20048;-83
2022/09/03 05:42:58;;;;;;;6.00;3.40;;;;;;;8.48;100.00;98442.44;2628081;28;20054;-83
2022/09/03 05:44:13;;;;;;;4.57;3.40;;;;;;;8.56;100.00;98435.34;2627969;28;20043;-82
2022/09/03 05:45:30;;;;;;;3.55;3.08;;;;;;;8.58;100.00;98435.31;2627724;28;20040;-82
2022/09/03 05:46:46;;;;;;;4.88;3.13;;;;;;;8.58;100.00;98440.53;2627703;28;20059;-83
2022/09/03 05:48:02;;;;;;;4.75;3.10;;;;;;;8.60;100.00;98444.84;2628246;28;20052;-85
2022/09/03 05:49:17;;;;;;;4.70;3.50;;;;;;;8.57;100.00;98444.91;2627426;28;20094;-83
2022/09/03 05:50:33;;;;;;;2.95;2.65;;;;;;;8.52;100.00;98440.66;2622771;28;20044;-83
2022/09/03 05:51:49;;;;;;;4.85;3.22;;;;;;;8.49;100.00;98444.16;2626087;28;20441;-82
2022/09/03 05:53:05;;;;;;;3.50;3.00;;;;;;;8.57;100.00;98444.03;2628311;28;20491;-82
2022/09/03 05:54:20;;;;;;;6.05;3.50;;;;;;;8.60;100.00;98444.84;2624388;28;20040;-82
2022/09/03 05:55:36;;;;;;;6.32;2.90;;;;;;;8.71;100.00;98443.75;2626780;28;20406;-82
2022/09/03 05:56:52;;;;;;;5.28;3.60;;;;;;;8.79;100.00;98451.44;2627367;28;20056;-86
2022/09/03 05:58:07;;;;;;;5.05;2.83;;;;;;;8.80;100.00;98447.94;2627580;28;20517;-85
2022/09/03 05:59:23;;;;;;;4.57;2.78;;;;;;;8.78;100.00;98450.56;2627829;28;20048;-84
2022/09/03 06:00:38;;;;;;;4.38;3.15;;;;;;;8.82;100.00;98448.75;2628274;28;20044;-83
2022/09/03 06:01:54;;;;;;;3.92;3.22;;;;;;;8.82;100.00;98453.97;2628110;28;20146;-84
2022/09/03 06:03:10;;;;;;;4.47;2.90;;;;;;;8.91;100.00;98445.97;2628064;28;20070;-83
2022/09/03 06:04:25;;;;;;;4.55;3.03;;;;;;;8.96;100.00;98441.50;2627956;28;20059;-83
2022/09/03 06:05:49;;;;;;;6.93;2.90;;;;;;;9.08;100.00;98450.84;2628402;28;20419;-89
2022/09/03 06:07:05;;;;;;;3.35;2.85;;;;;;;9.11;100.00;98445.53;2627667;28;20482;-83
2022/09/03 06:08:21;;;;;;;3.97;3.20;;;;;;;9.14;100.00;98440.25;2628070;28;20044;-84
2022/09/03 06:09:36;;;;;;;3.58;2.95;;;;;;;9.17;100.00;98440.16;2628059;28;20131;-83
2022/09/03 06:10:57;;;;;;;4.05;3.25;;;;;;;9.27;100.00;98445.19;2628187;28;20052;-87
2022/09/03 06:12:13;;;;;;;5.40;3.40;;;;;;;9.13;100.00;98437.66;2627644;28;20067;-83
2022/09/03 06:13:30;;;;;;;5.00;3.53;;;;;;;9.11;100.00;98437.69;2627952;28;20039;-87
2022/09/03 06:14:45;;;;;;;3.33;3.03;;;;;;;9.27;100.00;98442.59;2626748;28;20040;-84
2022/09/03 06:16:05;;;;;;;4.40;3.25;;;;;;;9.35;100.00;98438.00;2627998;28;20083;-84
2022/09/03 06:17:21;;;;;;;3.88;2.95;;;;;;;9.41;100.00;98439.63;2627796;28;20249;-84
2022/09/03 06:18:36;;;;;;;4.35;3.30;;;;;;;9.51;100.00;98437.69;2627897;28;20058;-83
2022/09/03 06:19:52;;;;;;;4.10;3.03;;;;;;;9.55;100.00;98441.94;2627846;28;20055;-84
2022/09/03 06:21:08;;;;;;;4.47;3.33;;;;;;;9.58;100.00;98445.34;2627936;28;20040;-84
2022/09/03 06:22:27;;;;;;;8.07;3.15;;;;;;;9.83;100.00;98438.66;2627869;28;20105;-83
2022/09/03 06:23:42;;;;;;;5.63;3.60;;;;;;;9.81;100.00;98438.69;2627317;28;20052;-84